sensor_id;sensor_type;location;lat;lon;timestamp;P1;durP1;ratioP1;P2;durP2;ratioP2
79346;SDS011;68815;48.810;44.482;2023-06-01T00:00:11;7.2;;;4.1;;
79346;SDS011;68815;48.810;44.482;2023-06-01T00:03:13;5.7;;;3.5;;
79346;SDS011;68815;48.810;44.482;2023-06-01T00:06:14;5.3;;;3.2;;
79346;SDS011;68815;48.810;44.482;2023-06-01T00:09:16;6.3;;;3.3;;
79346;SDS011;68815;48.810;44.482;2023-06-01T00:12:17;6.7;;;3.3;;
79346;SDS011;68815;48.810;44.482;2023-06-01T00:15:19;5.4;;;3.4;;
79346;SDS011;68815;48.810;44.482;2023-06-01T00:18:20;6.5;;;3.3;;
79346;SDS011;68815;48.810;44.482;2023-06-01T00:21:22;5.6;;;3.5;;
79346;SDS011;68815;48.810;44.482;2023-06-01T00:24:24;6.1;;;3.2;;
79346;SDS011;68815;48.810;44.482;2023-06-01T00:27:25;6.8;;;3.4;;
79346;SDS011;68815;48.810;44.482;2023-06-01T00:30:27;6.2;;;3.4;;
79346;SDS011;68815;48.810;44.482;2023-06-01T00:33:28;6.3;;;3.4;;
79346;SDS011;68815;48.810;44.482;2023-06-01T00:36:30;5.4;;;3;;
79346;SDS011;68815;48.810;44.482;2023-06-01T00:39:31;5.1;;;3.1;;
79346;SDS011;68815;48.810;44.482;2023-06-01T00:42:33;5.3;;;3.1;;
79346;SDS011;68815;48.810;44.482;2023-06-01T00:45:34;6;;;3.3;;
79346;SDS011;68815;48.810;44.482;2023-06-01T00:48:35;7.6;;;3.5;;
79346;SDS011;68815;48.810;44.482;2023-06-01T00:51:37;6;;;3.4;;
79346;SDS011;68815;48.810;44.482;2023-06-01T00:54:38;8.1;;;3.2;;
79346;SDS011;68815;48.810;44.482;2023-06-01T00:57:40;6.8;;;3.3;;
79346;SDS011;68815;48.810;44.482;2023-06-01T01:00:44;6.4;;;3.5;;
79346;SDS011;68815;48.810;44.482;2023-06-01T01:03:46;6.1;;;3.3;;
79346;SDS011;68815;48.810;44.482;2023-06-01T01:06:49;6.2;;;3.5;;
79346;SDS011;68815;48.810;44.482;2023-06-01T01:09:56;6.8;;;3.5;;
79346;SDS011;68815;48.810;44.482;2023-06-01T01:13:04;6.7;;;3.4;;
79346;SDS011;68815;48.810;44.482;2023-06-01T01:16:13;6.4;;;3.4;;
79346;SDS011;68815;48.810;44.482;2023-06-01T01:19:25;7.2;;;3.1;;
79346;SDS011;68815;48.810;44.482;2023-06-01T01:22:42;6.9;;;3.6;;
79346;SDS011;68815;48.810;44.482;2023-06-01T01:29:16;6;;;3.5;;
79346;SDS011;68815;48.810;44.482;2023-06-01T01:32:20;5.5;;;3.3;;
79346;SDS011;68815;48.810;44.482;2023-06-01T01:35:24;7;;;3.2;;
79346;SDS011;68815;48.810;44.482;2023-06-01T01:38:28;8.8;;;3.6;;
79346;SDS011;68815;48.810;44.482;2023-06-01T01:41:30;6.1;;;3.4;;
79346;SDS011;68815;48.810;44.482;2023-06-01T01:44:32;7.8;;;3.8;;
79346;SDS011;68815;48.810;44.482;2023-06-01T01:47:34;5.3;;;3.2;;
79346;SDS011;68815;48.810;44.482;2023-06-01T01:50:45;6.5;;;3.4;;
79346;SDS011;68815;48.810;44.482;2023-06-01T01:53:52;5.1;;;3.2;;
79346;SDS011;68815;48.810;44.482;2023-06-01T01:56:56;5.6;;;3.2;;
79346;SDS011;68815;48.810;44.482;2023-06-01T01:59:59;6.3;;;3.3;;
79346;SDS011;68815;48.810;44.482;2023-06-01T02:03:01;6.7;;;3.6;;
79346;SDS011;68815;48.810;44.482;2023-06-01T02:06:02;6.2;;;3.5;;
79346;SDS011;68815;48.810;44.482;2023-06-01T02:09:04;5.7;;;3;;
79346;SDS011;68815;48.810;44.482;2023-06-01T02:12:06;6.3;;;3.5;;
79346;SDS011;68815;48.810;44.482;2023-06-01T02:15:08;7.1;;;3.7;;
79346;SDS011;68815;48.810;44.482;2023-06-01T02:18:09;7.6;;;3.4;;
79346;SDS011;68815;48.810;44.482;2023-06-01T02:21:26;7.6;;;3.5;;
79346;SDS011;68815;48.810;44.482;2023-06-01T02:24:27;7.5;;;3.4;;
79346;SDS011;68815;48.810;44.482;2023-06-01T02:27:29;6.3;;;3;;
79346;SDS011;68815;48.810;44.482;2023-06-01T02:30:30;7.1;;;3.2;;
79346;SDS011;68815;48.810;44.482;2023-06-01T02:33:32;6.2;;;3.4;;
79346;SDS011;68815;48.810;44.482;2023-06-01T02:36:33;6.4;;;3.1;;
79346;SDS011;68815;48.810;44.482;2023-06-01T02:39:35;6.4;;;3.4;;
79346;SDS011;68815;48.810;44.482;2023-06-01T02:42:36;7.8;;;3.3;;
79346;SDS011;68815;48.810;44.482;2023-06-01T02:45:37;6.1;;;3.3;;
79346;SDS011;68815;48.810;44.482;2023-06-01T02:48:39;7.1;;;4.1;;
79346;SDS011;68815;48.810;44.482;2023-06-01T02:51:40;6;;;3.6;;
79346;SDS011;68815;48.810;44.482;2023-06-01T02:54:41;6.9;;;3.4;;
79346;SDS011;68815;48.810;44.482;2023-06-01T02:57:43;7.5;;;3.7;;
79346;SDS011;68815;48.810;44.482;2023-06-01T03:00:44;8.2;;;4.4;;
79346;SDS011;68815;48.810;44.482;2023-06-01T03:03:45;7;;;3.5;;
79346;SDS011;68815;48.810;44.482;2023-06-01T03:06:47;7;;;4;;
79346;SDS011;68815;48.810;44.482;2023-06-01T03:09:48;7.6;;;3.5;;
79346;SDS011;68815;48.810;44.482;2023-06-01T03:12:49;15.1;;;8.9;;
79346;SDS011;68815;48.810;44.482;2023-06-01T03:15:51;8.3;;;3.5;;
79346;SDS011;68815;48.810;44.482;2023-06-01T03:18:53;7.2;;;3.6;;
79346;SDS011;68815;48.810;44.482;2023-06-01T03:21:54;7.2;;;4;;
79346;SDS011;68815;48.810;44.482;2023-06-01T03:24:56;8.8;;;3.5;;
79346;SDS011;68815;48.810;44.482;2023-06-01T03:27:57;6.7;;;3.5;;
79346;SDS011;68815;48.810;44.482;2023-06-01T03:30:58;6.3;;;3.3;;
79346;SDS011;68815;48.810;44.482;2023-06-01T03:34:00;9.6;;;4.2;;
79346;SDS011;68815;48.810;44.482;2023-06-01T03:37:01;6.1;;;3.5;;
79346;SDS011;68815;48.810;44.482;2023-06-01T03:40:03;15.5;;;10.4;;
79346;SDS011;68815;48.810;44.482;2023-06-01T03:43:06;7.2;;;3.2;;
79346;SDS011;68815;48.810;44.482;2023-06-01T03:46:07;6.2;;;3.6;;
79346;SDS011;68815;48.810;44.482;2023-06-01T03:49:08;8.3;;;3.4;;
79346;SDS011;68815;48.810;44.482;2023-06-01T03:52:10;7.5;;;3.4;;
79346;SDS011;68815;48.810;44.482;2023-06-01T03:55:11;6.3;;;3.4;;
79346;SDS011;68815;48.810;44.482;2023-06-01T03:58:12;8;;;3.3;;
79346;SDS011;68815;48.810;44.482;2023-06-01T04:01:13;5.8;;;3.3;;
79346;SDS011;68815;48.810;44.482;2023-06-01T04:04:15;8.4;;;3.4;;
79346;SDS011;68815;48.810;44.482;2023-06-01T04:07:16;7.4;;;3.2;;
79346;SDS011;68815;48.810;44.482;2023-06-01T04:10:18;7.5;;;3;;
79346;SDS011;68815;48.810;44.482;2023-06-01T04:13:20;7.4;;;4.1;;
79346;SDS011;68815;48.810;44.482;2023-06-01T04:16:21;8.6;;;3.2;;
79346;SDS011;68815;48.810;44.482;2023-06-01T04:19:22;6;;;3.1;;
79346;SDS011;68815;48.810;44.482;2023-06-01T04:22:25;7.2;;;3;;
79346;SDS011;68815;48.810;44.482;2023-06-01T04:25:26;8.6;;;2.9;;
79346;SDS011;68815;48.810;44.482;2023-06-01T04:35:30;6;;;3;;
79346;SDS011;68815;48.810;44.482;2023-06-01T04:38:31;9.5;;;3.1;;
79346;SDS011;68815;48.810;44.482;2023-06-01T04:41:33;6.8;;;2.7;;
79346;SDS011;68815;48.810;44.482;2023-06-01T04:44:36;7.4;;;3.2;;
79346;SDS011;68815;48.810;44.482;2023-06-01T04:47:37;7;;;2.8;;
79346;SDS011;68815;48.810;44.482;2023-06-01T04:50:38;9.2;;;2.7;;
79346;SDS011;68815;48.810;44.482;2023-06-01T04:53:40;7.2;;;2.9;;
79346;SDS011;68815;48.810;44.482;2023-06-01T04:56:41;7.9;;;2.9;;
79346;SDS011;68815;48.810;44.482;2023-06-01T04:59:43;10.2;;;3.1;;
79346;SDS011;68815;48.810;44.482;2023-06-01T05:02:44;8;;;2.8;;
79346;SDS011;68815;48.810;44.482;2023-06-01T05:05:47;10.1;;;3.1;;
79346;SDS011;68815;48.810;44.482;2023-06-01T05:08:49;11.3;;;2.9;;
79346;SDS011;68815;48.810;44.482;2023-06-01T05:11:51;10.6;;;3.2;;
79346;SDS011;68815;48.810;44.482;2023-06-01T05:14:52;8;;;3.1;;
79346;SDS011;68815;48.810;44.482;2023-06-01T05:17:54;8.4;;;2.6;;
79346;SDS011;68815;48.810;44.482;2023-06-01T05:20:55;9.7;;;2.8;;
79346;SDS011;68815;48.810;44.482;2023-06-01T05:23:56;13.5;;;3.1;;
79346;SDS011;68815;48.810;44.482;2023-06-01T05:26:58;8.9;;;3;;
79346;SDS011;68815;48.810;44.482;2023-06-01T05:29:59;5.9;;;2.6;;
79346;SDS011;68815;48.810;44.482;2023-06-01T05:33:01;7.9;;;2.6;;
79346;SDS011;68815;48.810;44.482;2023-06-01T05:36:03;8.5;;;2.6;;
79346;SDS011;68815;48.810;44.482;2023-06-01T05:39:04;6.6;;;2.8;;
79346;SDS011;68815;48.810;44.482;2023-06-01T05:42:06;9;;;2.7;;
79346;SDS011;68815;48.810;44.482;2023-06-01T05:45:08;5.9;;;2.7;;
79346;SDS011;68815;48.810;44.482;2023-06-01T05:48:10;8;;;2.7;;
79346;SDS011;68815;48.810;44.482;2023-06-01T05:51:11;7.4;;;2.8;;
79346;SDS011;68815;48.810;44.482;2023-06-01T05:54:13;11.3;;;3.2;;
79346;SDS011;68815;48.810;44.482;2023-06-01T06:00:46;9.1;;;3;;
79346;SDS011;68815;48.810;44.482;2023-06-01T06:03:47;8.5;;;3.3;;
79346;SDS011;68815;48.810;44.482;2023-06-01T06:06:49;5.7;;;2.8;;
79346;SDS011;68815;48.810;44.482;2023-06-01T06:09:50;7.7;;;3;;
79346;SDS011;68815;48.810;44.482;2023-06-01T06:12:51;8.7;;;3.4;;
79346;SDS011;68815;48.810;44.482;2023-06-01T06:15:53;7.2;;;2.8;;
79346;SDS011;68815;48.810;44.482;2023-06-01T06:18:54;8.4;;;3.6;;
79346;SDS011;68815;48.810;44.482;2023-06-01T06:21:55;8;;;3;;
79346;SDS011;68815;48.810;44.482;2023-06-01T06:24:57;7.3;;;3.3;;
79346;SDS011;68815;48.810;44.482;2023-06-01T06:27:58;5.9;;;3;;
79346;SDS011;68815;48.810;44.482;2023-06-01T06:31:00;7.5;;;2.8;;
79346;SDS011;68815;48.810;44.482;2023-06-01T06:34:01;5.9;;;2.9;;
79346;SDS011;68815;48.810;44.482;2023-06-01T06:37:03;6.4;;;2.9;;
79346;SDS011;68815;48.810;44.482;2023-06-01T06:40:05;6.1;;;2.8;;
79346;SDS011;68815;48.810;44.482;2023-06-01T06:43:07;10.4;;;3.4;;
79346;SDS011;68815;48.810;44.482;2023-06-01T06:46:08;5.9;;;3;;
79346;SDS011;68815;48.810;44.482;2023-06-01T06:49:09;11.7;;;3.8;;
79346;SDS011;68815;48.810;44.482;2023-06-01T06:52:11;7.1;;;3.3;;
79346;SDS011;68815;48.810;44.482;2023-06-01T06:55:12;8.5;;;3.5;;
79346;SDS011;68815;48.810;44.482;2023-06-01T06:58:13;7.3;;;2.8;;
79346;SDS011;68815;48.810;44.482;2023-06-01T07:01:15;8.8;;;3.3;;
79346;SDS011;68815;48.810;44.482;2023-06-01T07:04:17;8.5;;;3.1;;
79346;SDS011;68815;48.810;44.482;2023-06-01T07:07:18;10.7;;;3.3;;
79346;SDS011;68815;48.810;44.482;2023-06-01T07:10:19;7.3;;;3.4;;
79346;SDS011;68815;48.810;44.482;2023-06-01T07:13:22;9.2;;;4;;
79346;SDS011;68815;48.810;44.482;2023-06-01T07:16:23;8.7;;;3.2;;
79346;SDS011;68815;48.810;44.482;2023-06-01T07:19:25;6.7;;;3;;
79346;SDS011;68815;48.810;44.482;2023-06-01T07:22:26;7.5;;;2.9;;
79346;SDS011;68815;48.810;44.482;2023-06-01T07:25:27;8.6;;;3.6;;
79346;SDS011;68815;48.810;44.482;2023-06-01T07:28:29;8.1;;;3.5;;
79346;SDS011;68815;48.810;44.482;2023-06-01T07:31:31;8.9;;;3.1;;
79346;SDS011;68815;48.810;44.482;2023-06-01T07:34:32;11.6;;;3.2;;
79346;SDS011;68815;48.810;44.482;2023-06-01T07:37:34;8;;;3.2;;
79346;SDS011;68815;48.810;44.482;2023-06-01T07:40:35;13.8;;;3.2;;
79346;SDS011;68815;48.810;44.482;2023-06-01T07:43:37;11.5;;;3.3;;
79346;SDS011;68815;48.810;44.482;2023-06-01T07:46:38;7;;;3.1;;
79346;SDS011;68815;48.810;44.482;2023-06-01T07:49:40;10.4;;;3.5;;
79346;SDS011;68815;48.810;44.482;2023-06-01T07:52:41;7.4;;;3.5;;
79346;SDS011;68815;48.810;44.482;2023-06-01T07:55:43;6.3;;;3.2;;
79346;SDS011;68815;48.810;44.482;2023-06-01T07:58:44;11;;;3.4;;
79346;SDS011;68815;48.810;44.482;2023-06-01T08:01:48;8.2;;;3.5;;
79346;SDS011;68815;48.810;44.482;2023-06-01T08:04:49;10.2;;;4.2;;
79346;SDS011;68815;48.810;44.482;2023-06-01T08:07:51;9.2;;;4;;
79346;SDS011;68815;48.810;44.482;2023-06-01T08:10:52;12.8;;;4.4;;
79346;SDS011;68815;48.810;44.482;2023-06-01T08:13:53;9.4;;;3.7;;
79346;SDS011;68815;48.810;44.482;2023-06-01T08:16:54;7.8;;;3.6;;
79346;SDS011;68815;48.810;44.482;2023-06-01T08:19:56;7.7;;;3.3;;
79346;SDS011;68815;48.810;44.482;2023-06-01T08:22:57;7;;;3.5;;
79346;SDS011;68815;48.810;44.482;2023-06-01T08:25:58;8.2;;;3.3;;
79346;SDS011;68815;48.810;44.482;2023-06-01T08:29:00;12.3;;;3.9;;
79346;SDS011;68815;48.810;44.482;2023-06-01T08:32:01;11.8;;;4.3;;
79346;SDS011;68815;48.810;44.482;2023-06-01T08:35:02;7.8;;;4;;
79346;SDS011;68815;48.810;44.482;2023-06-01T08:38:05;8.1;;;4.3;;
79346;SDS011;68815;48.810;44.482;2023-06-01T08:41:10;9.1;;;4.2;;
79346;SDS011;68815;48.810;44.482;2023-06-01T08:44:18;12.4;;;6.2;;
79346;SDS011;68815;48.810;44.482;2023-06-01T08:47:28;10.6;;;5.4;;
79346;SDS011;68815;48.810;44.482;2023-06-01T08:50:30;9.3;;;3.7;;
79346;SDS011;68815;48.810;44.482;2023-06-01T08:53:31;7.8;;;3.7;;
79346;SDS011;68815;48.810;44.482;2023-06-01T08:56:34;9;;;4.1;;
79346;SDS011;68815;48.810;44.482;2023-06-01T08:59:36;8.6;;;4.4;;
79346;SDS011;68815;48.810;44.482;2023-06-01T09:02:37;9.3;;;4.7;;
79346;SDS011;68815;48.810;44.482;2023-06-01T09:05:39;7.6;;;4;;
79346;SDS011;68815;48.810;44.482;2023-06-01T09:08:41;8.8;;;4.2;;
79346;SDS011;68815;48.810;44.482;2023-06-01T09:11:42;7;;;3.8;;
79346;SDS011;68815;48.810;44.482;2023-06-01T09:14:43;9.1;;;3.7;;
79346;SDS011;68815;48.810;44.482;2023-06-01T09:17:45;9.9;;;3.6;;
79346;SDS011;68815;48.810;44.482;2023-06-01T09:20:48;7.5;;;3.5;;
79346;SDS011;68815;48.810;44.482;2023-06-01T09:23:49;6.8;;;3.4;;
79346;SDS011;68815;48.810;44.482;2023-06-01T09:26:51;6.8;;;3.5;;
79346;SDS011;68815;48.810;44.482;2023-06-01T09:30:01;9.1;;;3.8;;
79346;SDS011;68815;48.810;44.482;2023-06-01T09:33:09;8.3;;;3.8;;
79346;SDS011;68815;48.810;44.482;2023-06-01T09:36:13;8.9;;;4.4;;
79346;SDS011;68815;48.810;44.482;2023-06-01T09:39:25;8.4;;;4;;
79346;SDS011;68815;48.810;44.482;2023-06-01T09:42:34;8.2;;;4.2;;
79346;SDS011;68815;48.810;44.482;2023-06-01T09:45:36;8.4;;;3.7;;
79346;SDS011;68815;48.810;44.482;2023-06-01T09:48:37;10.5;;;3.7;;
79346;SDS011;68815;48.810;44.482;2023-06-01T09:51:39;14.9;;;4.2;;
79346;SDS011;68815;48.810;44.482;2023-06-01T09:54:41;9.9;;;3.8;;
79346;SDS011;68815;48.810;44.482;2023-06-01T09:57:43;9.8;;;3.8;;
79346;SDS011;68815;48.810;44.482;2023-06-01T10:00:45;8.4;;;3.5;;
79346;SDS011;68815;48.810;44.482;2023-06-01T10:03:47;7.8;;;3.4;;
79346;SDS011;68815;48.810;44.482;2023-06-01T10:06:50;14.4;;;3.7;;
79346;SDS011;68815;48.810;44.482;2023-06-01T10:09:54;10.2;;;3.5;;
79346;SDS011;68815;48.810;44.482;2023-06-01T10:12:56;12.3;;;3.8;;
79346;SDS011;68815;48.810;44.482;2023-06-01T10:15:58;10.3;;;4;;
79346;SDS011;68815;48.810;44.482;2023-06-01T10:18:59;11.5;;;3.9;;
79346;SDS011;68815;48.810;44.482;2023-06-01T10:22:01;11.7;;;4;;
79346;SDS011;68815;48.810;44.482;2023-06-01T10:25:03;14;;;3.5;;
79346;SDS011;68815;48.810;44.482;2023-06-01T10:28:06;9;;;3.5;;
79346;SDS011;68815;48.810;44.482;2023-06-01T10:34:41;7;;;3.3;;
79346;SDS011;68815;48.810;44.482;2023-06-01T10:37:43;7;;;3.4;;
79346;SDS011;68815;48.810;44.482;2023-06-01T10:47:48;9.7;;;3.6;;
79346;SDS011;68815;48.810;44.482;2023-06-01T10:51:15;7.7;;;3.2;;
79346;SDS011;68815;48.810;44.482;2023-06-01T10:54:25;8.6;;;3.2;;
79346;SDS011;68815;48.810;44.482;2023-06-01T10:57:27;7;;;3.1;;
79346;SDS011;68815;48.810;44.482;2023-06-01T11:00:29;9.4;;;3;;
79346;SDS011;68815;48.810;44.482;2023-06-01T11:03:43;6.2;;;2.9;;
79346;SDS011;68815;48.810;44.482;2023-06-01T11:06:46;7.3;;;3.1;;
79346;SDS011;68815;48.810;44.482;2023-06-01T11:09:47;7.5;;;3.1;;
79346;SDS011;68815;48.810;44.482;2023-06-01T11:19:35;9.6;;;3;;
79346;SDS011;68815;48.810;44.482;2023-06-01T11:22:36;8.1;;;3;;
79346;SDS011;68815;48.810;44.482;2023-06-01T11:25:38;8.6;;;3.3;;
79346;SDS011;68815;48.810;44.482;2023-06-01T11:28:43;7.1;;;3.1;;
79346;SDS011;68815;48.810;44.482;2023-06-01T11:31:45;7.4;;;3.1;;
79346;SDS011;68815;48.810;44.482;2023-06-01T11:34:48;6.6;;;3.1;;
79346;SDS011;68815;48.810;44.482;2023-06-01T11:37:53;9;;;3.4;;
79346;SDS011;68815;48.810;44.482;2023-06-01T11:40:58;8.1;;;3.2;;
79346;SDS011;68815;48.810;44.482;2023-06-01T11:43:59;9.1;;;3.4;;
79346;SDS011;68815;48.810;44.482;2023-06-01T11:47:01;7.4;;;3.4;;
79346;SDS011;68815;48.810;44.482;2023-06-01T11:50:03;7.4;;;3.3;;
79346;SDS011;68815;48.810;44.482;2023-06-01T11:53:06;8.7;;;3.2;;
79346;SDS011;68815;48.810;44.482;2023-06-01T11:56:07;7.9;;;2.9;;
79346;SDS011;68815;48.810;44.482;2023-06-01T11:59:09;6.9;;;3.3;;
79346;SDS011;68815;48.810;44.482;2023-06-01T12:02:18;6.3;;;3.4;;
79346;SDS011;68815;48.810;44.482;2023-06-01T12:05:21;6.9;;;3.1;;
79346;SDS011;68815;48.810;44.482;2023-06-01T12:08:23;7.3;;;3.1;;
79346;SDS011;68815;48.810;44.482;2023-06-01T12:11:25;6.3;;;3;;
79346;SDS011;68815;48.810;44.482;2023-06-01T12:14:27;6.4;;;3.1;;
79346;SDS011;68815;48.810;44.482;2023-06-01T12:20:48;8.5;;;3.3;;
79346;SDS011;68815;48.810;44.482;2023-06-01T12:23:50;6.6;;;3;;
79346;SDS011;68815;48.810;44.482;2023-06-01T12:26:51;6;;;3.3;;
79346;SDS011;68815;48.810;44.482;2023-06-01T12:29:52;8.3;;;3.2;;
79346;SDS011;68815;48.810;44.482;2023-06-01T12:32:54;6;;;3.1;;
79346;SDS011;68815;48.810;44.482;2023-06-01T12:35:55;7;;;3.3;;
79346;SDS011;68815;48.810;44.482;2023-06-01T12:38:56;7.2;;;3.9;;
79346;SDS011;68815;48.810;44.482;2023-06-01T12:41:58;6.1;;;3.2;;
79346;SDS011;68815;48.810;44.482;2023-06-01T12:45:00;5.4;;;2.9;;
79346;SDS011;68815;48.810;44.482;2023-06-01T12:48:01;6.8;;;3.1;;
79346;SDS011;68815;48.810;44.482;2023-06-01T12:51:03;6;;;3.3;;
79346;SDS011;68815;48.810;44.482;2023-06-01T12:54:05;7.5;;;3;;
79346;SDS011;68815;48.810;44.482;2023-06-01T12:57:11;9.6;;;3;;
79346;SDS011;68815;48.810;44.482;2023-06-01T13:00:14;7.6;;;3.3;;
79346;SDS011;68815;48.810;44.482;2023-06-01T13:03:16;8.1;;;3.6;;
79346;SDS011;68815;48.810;44.482;2023-06-01T13:06:17;7.8;;;3.2;;
79346;SDS011;68815;48.810;44.482;2023-06-01T13:09:19;7;;;3.5;;
79346;SDS011;68815;48.810;44.482;2023-06-01T13:12:20;8.1;;;3.6;;
79346;SDS011;68815;48.810;44.482;2023-06-01T13:15:22;9.1;;;3.9;;
79346;SDS011;68815;48.810;44.482;2023-06-01T13:18:23;9.7;;;3.9;;
79346;SDS011;68815;48.810;44.482;2023-06-01T13:21:24;9.3;;;3.7;;
79346;SDS011;68815;48.810;44.482;2023-06-01T13:24:26;9.9;;;4.1;;
79346;SDS011;68815;48.810;44.482;2023-06-01T13:27:27;11.1;;;3.6;;
79346;SDS011;68815;48.810;44.482;2023-06-01T13:30:29;7.3;;;3.6;;
79346;SDS011;68815;48.810;44.482;2023-06-01T13:33:30;9.7;;;4;;
79346;SDS011;68815;48.810;44.482;2023-06-01T13:36:32;10.3;;;3.6;;
79346;SDS011;68815;48.810;44.482;2023-06-01T13:39:33;10.8;;;4.9;;
79346;SDS011;68815;48.810;44.482;2023-06-01T13:42:35;12.4;;;3.8;;
79346;SDS011;68815;48.810;44.482;2023-06-01T13:45:37;14.8;;;4.2;;
79346;SDS011;68815;48.810;44.482;2023-06-01T13:48:38;9.6;;;3.8;;
79346;SDS011;68815;48.810;44.482;2023-06-01T13:51:40;9.2;;;3.5;;
79346;SDS011;68815;48.810;44.482;2023-06-01T13:54:41;10.7;;;3.7;;
79346;SDS011;68815;48.810;44.482;2023-06-01T13:57:43;8.8;;;4;;
79346;SDS011;68815;48.810;44.482;2023-06-01T14:00:45;11.3;;;4.4;;
79346;SDS011;68815;48.810;44.482;2023-06-01T14:03:46;9.8;;;3.5;;
79346;SDS011;68815;48.810;44.482;2023-06-01T14:06:48;16.4;;;4.8;;
79346;SDS011;68815;48.810;44.482;2023-06-01T14:09:50;10;;;3.7;;
79346;SDS011;68815;48.810;44.482;2023-06-01T14:12:51;9.8;;;3.9;;
79346;SDS011;68815;48.810;44.482;2023-06-01T14:15:52;11.8;;;4.2;;
79346;SDS011;68815;48.810;44.482;2023-06-01T14:18:54;8.6;;;4.1;;
79346;SDS011;68815;48.810;44.482;2023-06-01T14:21:55;13.2;;;3.9;;
79346;SDS011;68815;48.810;44.482;2023-06-01T14:24:56;12.2;;;4;;
79346;SDS011;68815;48.810;44.482;2023-06-01T14:27:58;17.2;;;4.1;;
79346;SDS011;68815;48.810;44.482;2023-06-01T14:30:59;13.9;;;4.1;;
79346;SDS011;68815;48.810;44.482;2023-06-01T14:34:00;11.7;;;4;;
79346;SDS011;68815;48.810;44.482;2023-06-01T14:37:02;10;;;3.8;;
79346;SDS011;68815;48.810;44.482;2023-06-01T14:40:03;10.7;;;4.2;;
79346;SDS011;68815;48.810;44.482;2023-06-01T14:43:05;18.9;;;4.5;;
79346;SDS011;68815;48.810;44.482;2023-06-01T14:46:07;17.6;;;4.3;;
79346;SDS011;68815;48.810;44.482;2023-06-01T14:49:08;11.7;;;3.9;;
79346;SDS011;68815;48.810;44.482;2023-06-01T14:52:10;11.5;;;3.8;;
79346;SDS011;68815;48.810;44.482;2023-06-01T14:55:11;12.3;;;4;;
79346;SDS011;68815;48.810;44.482;2023-06-01T14:58:12;10.6;;;4.6;;
79346;SDS011;68815;48.810;44.482;2023-06-01T15:01:15;11.3;;;4.1;;
79346;SDS011;68815;48.810;44.482;2023-06-01T15:04:16;15.4;;;5.4;;
79346;SDS011;68815;48.810;44.482;2023-06-01T15:07:17;16.1;;;5.4;;
79346;SDS011;68815;48.810;44.482;2023-06-01T15:10:19;9.7;;;4.7;;
79346;SDS011;68815;48.810;44.482;2023-06-01T15:13:22;11.9;;;5.1;;
79346;SDS011;68815;48.810;44.482;2023-06-01T15:16:23;10.6;;;4.8;;
79346;SDS011;68815;48.810;44.482;2023-06-01T15:19:24;11.1;;;4.1;;
79346;SDS011;68815;48.810;44.482;2023-06-01T15:22:26;10.1;;;3.6;;
79346;SDS011;68815;48.810;44.482;2023-06-01T15:25:27;10.2;;;3.9;;
79346;SDS011;68815;48.810;44.482;2023-06-01T15:28:29;11.8;;;4;;
79346;SDS011;68815;48.810;44.482;2023-06-01T15:31:30;10.1;;;3.8;;
79346;SDS011;68815;48.810;44.482;2023-06-01T15:34:32;10.2;;;4;;
79346;SDS011;68815;48.810;44.482;2023-06-01T15:37:33;8.2;;;3.6;;
79346;SDS011;68815;48.810;44.482;2023-06-01T15:40:35;8.4;;;4;;
79346;SDS011;68815;48.810;44.482;2023-06-01T15:43:37;9.6;;;3.7;;
79346;SDS011;68815;48.810;44.482;2023-06-01T15:46:38;11.2;;;4.7;;
79346;SDS011;68815;48.810;44.482;2023-06-01T15:49:39;10.7;;;4.6;;
79346;SDS011;68815;48.810;44.482;2023-06-01T15:52:41;9.8;;;4.8;;
79346;SDS011;68815;48.810;44.482;2023-06-01T15:55:43;13.6;;;5.2;;
79346;SDS011;68815;48.810;44.482;2023-06-01T15:58:44;12.1;;;5.4;;
79346;SDS011;68815;48.810;44.482;2023-06-01T16:01:45;10.4;;;5.1;;
79346;SDS011;68815;48.810;44.482;2023-06-01T16:04:47;8.9;;;4.8;;
79346;SDS011;68815;48.810;44.482;2023-06-01T16:07:49;10.7;;;4.7;;
79346;SDS011;68815;48.810;44.482;2023-06-01T16:10:50;13.6;;;4.6;;
79346;SDS011;68815;48.810;44.482;2023-06-01T16:13:51;10.9;;;4.7;;
79346;SDS011;68815;48.810;44.482;2023-06-01T16:16:53;18.3;;;5;;
79346;SDS011;68815;48.810;44.482;2023-06-01T16:19:54;14.2;;;4.7;;
79346;SDS011;68815;48.810;44.482;2023-06-01T16:22:56;14.9;;;5.1;;
79346;SDS011;68815;48.810;44.482;2023-06-01T16:25:57;14;;;4.8;;
79346;SDS011;68815;48.810;44.482;2023-06-01T16:28:58;12.7;;;5;;
79346;SDS011;68815;48.810;44.482;2023-06-01T16:31:59;11.7;;;4.7;;
79346;SDS011;68815;48.810;44.482;2023-06-01T16:35:01;9.6;;;4.4;;
79346;SDS011;68815;48.810;44.482;2023-06-01T16:38:02;16.6;;;5.6;;
79346;SDS011;68815;48.810;44.482;2023-06-01T16:41:04;18.7;;;6.9;;
79346;SDS011;68815;48.810;44.482;2023-06-01T16:44:05;17.2;;;5.2;;
79346;SDS011;68815;48.810;44.482;2023-06-01T16:47:06;11.8;;;4.6;;
79346;SDS011;68815;48.810;44.482;2023-06-01T16:50:08;15.3;;;4.6;;
79346;SDS011;68815;48.810;44.482;2023-06-01T16:53:10;12.4;;;5.4;;
79346;SDS011;68815;48.810;44.482;2023-06-01T16:56:11;17.1;;;7.5;;
79346;SDS011;68815;48.810;44.482;2023-06-01T16:59:13;16.6;;;8.9;;
79346;SDS011;68815;48.810;44.482;2023-06-01T17:02:14;15.7;;;6.8;;
79346;SDS011;68815;48.810;44.482;2023-06-01T17:05:16;14.2;;;7;;
79346;SDS011;68815;48.810;44.482;2023-06-01T17:08:18;14;;;5.2;;
79346;SDS011;68815;48.810;44.482;2023-06-01T17:11:19;14.1;;;4.9;;
79346;SDS011;68815;48.810;44.482;2023-06-01T17:14:21;13.3;;;4.8;;
79346;SDS011;68815;48.810;44.482;2023-06-01T17:17:22;9.1;;;3.8;;
79346;SDS011;68815;48.810;44.482;2023-06-01T17:20:24;11.7;;;4.1;;
79346;SDS011;68815;48.810;44.482;2023-06-01T17:23:25;8.6;;;3.4;;
79346;SDS011;68815;48.810;44.482;2023-06-01T17:26:26;9.2;;;4.2;;
79346;SDS011;68815;48.810;44.482;2023-06-01T17:32:59;10.7;;;3.6;;
79346;SDS011;68815;48.810;44.482;2023-06-01T17:36:00;10.4;;;3.7;;
79346;SDS011;68815;48.810;44.482;2023-06-01T17:39:01;13.1;;;4.1;;
79346;SDS011;68815;48.810;44.482;2023-06-01T17:42:03;11.6;;;3.7;;
79346;SDS011;68815;48.810;44.482;2023-06-01T17:45:05;10.4;;;3.4;;
79346;SDS011;68815;48.810;44.482;2023-06-01T17:48:06;12.4;;;3.2;;
79346;SDS011;68815;48.810;44.482;2023-06-01T17:51:08;9.3;;;3.3;;
79346;SDS011;68815;48.810;44.482;2023-06-01T17:54:09;10.6;;;3.3;;
79346;SDS011;68815;48.810;44.482;2023-06-01T17:57:11;10.1;;;3.1;;
79346;SDS011;68815;48.810;44.482;2023-06-01T18:00:13;8.4;;;2.7;;
79346;SDS011;68815;48.810;44.482;2023-06-01T18:03:15;10.8;;;3.2;;
79346;SDS011;68815;48.810;44.482;2023-06-01T18:06:16;9.2;;;3.2;;
79346;SDS011;68815;48.810;44.482;2023-06-01T18:09:18;9.9;;;3.5;;
79346;SDS011;68815;48.810;44.482;2023-06-01T18:12:19;7.8;;;3.3;;
79346;SDS011;68815;48.810;44.482;2023-06-01T18:15:20;13;;;4.7;;
79346;SDS011;68815;48.810;44.482;2023-06-01T18:18:22;8.4;;;4.1;;
79346;SDS011;68815;48.810;44.482;2023-06-01T18:21:23;10.7;;;4.3;;
79346;SDS011;68815;48.810;44.482;2023-06-01T18:24:24;8.2;;;3.1;;
79346;SDS011;68815;48.810;44.482;2023-06-01T18:30:57;7.8;;;2.8;;
79346;SDS011;68815;48.810;44.482;2023-06-01T18:33:58;7.9;;;3.1;;
79346;SDS011;68815;48.810;44.482;2023-06-01T18:37:00;6.7;;;3;;
79346;SDS011;68815;48.810;44.482;2023-06-01T18:43:33;10.4;;;3.9;;
79346;SDS011;68815;48.810;44.482;2023-06-01T18:46:34;9.9;;;3.4;;
79346;SDS011;68815;48.810;44.482;2023-06-01T18:49:36;10.5;;;3.2;;
79346;SDS011;68815;48.810;44.482;2023-06-01T18:52:40;8.9;;;2.9;;
79346;SDS011;68815;48.810;44.482;2023-06-01T18:55:41;10.1;;;3.4;;
79346;SDS011;68815;48.810;44.482;2023-06-01T18:58:43;9.6;;;3.2;;
79346;SDS011;68815;48.810;44.482;2023-06-01T19:01:44;8.4;;;3.2;;
79346;SDS011;68815;48.810;44.482;2023-06-01T19:04:45;7.6;;;3;;
79346;SDS011;68815;48.810;44.482;2023-06-01T19:07:47;11.6;;;3.3;;
79346;SDS011;68815;48.810;44.482;2023-06-01T19:10:54;7.8;;;3.4;;
79346;SDS011;68815;48.810;44.482;2023-06-01T19:13:57;12.1;;;5.9;;
79346;SDS011;68815;48.810;44.482;2023-06-01T19:16:59;16.5;;;8.4;;
79346;SDS011;68815;48.810;44.482;2023-06-01T19:23:31;9.2;;;3.5;;